createdAt,value
2023-01-17T04:25:09.967Z,98.00
2023-01-17T04:27:37.368Z,97.50
2023-01-17T04:30:04.772Z,97.20
2023-01-17T04:32:31.797Z,97.40
2023-01-17T04:35:05.358Z,97.00
2023-01-17T04:37:32.323Z,97.40
2023-01-17T04:39:59.394Z,97.10
2023-01-17T04:42:26.989Z,97.20
2023-01-17T04:44:53.949Z,96.90
2023-01-17T04:47:20.903Z,96.80
2023-01-17T04:49:48.134Z,97.10
2023-01-17T04:52:18.802Z,96.80
2023-01-17T04:54:48.590Z,96.60
2023-01-17T18:41:36.872Z,99.30
2023-01-17T18:44:06.216Z,99.30
2023-01-17T18:46:33.878Z,99.30
2023-01-17T18:49:01.193Z,98.80
2023-01-17T18:51:32.141Z,98.80
2023-01-17T18:54:19.422Z,98.60
2023-01-17T18:56:46.747Z,98.50
2023-01-17T18:59:18.533Z,98.20
2023-01-17T19:01:46.195Z,98.60
2023-01-17T19:04:16.538Z,98.40
2023-01-17T19:06:46.373Z,98.70
2023-01-17T19:09:15.532Z,98.20
2023-01-17T19:11:45.195Z,98.50
2023-01-17T19:14:13.241Z,98.30
2023-01-17T19:16:42.078Z,98.40
2023-01-17T19:19:13.260Z,98.20
2023-01-17T19:21:40.374Z,98.40
2023-01-17T19:24:11.082Z,98.00
2023-01-17T19:26:38.324Z,97.90
2023-01-17T19:29:06.948Z,97.90
2023-01-17T19:31:39.802Z,97.80
2023-01-17T19:34:06.823Z,97.60
2023-01-17T19:36:36.541Z,97.60
2023-01-17T19:39:06.826Z,97.40
2023-01-17T19:41:36.119Z,97.50
2023-01-17T19:44:06.506Z,97.40
2023-01-17T19:46:34.199Z,97.10
2023-01-17T19:49:02.093Z,97.20
2023-01-17T19:51:29.630Z,97.50
2023-01-17T19:53:59.320Z,97.30
2023-01-17T19:56:27.635Z,97.00
2023-01-17T19:58:54.872Z,96.70
2023-01-17T20:01:25.388Z,96.80
2023-01-17T20:03:53.053Z,96.60
2023-01-17T20:06:24.993Z,96.10
2023-01-17T20:08:52.096Z,96.20
2023-01-17T20:11:21.510Z,96.40
2023-01-17T20:13:51.732Z,96.30
2023-01-17T20:16:19.020Z,96.30
2023-01-17T20:18:46.933Z,96.00
2023-01-17T20:21:18.172Z,96.10
2023-01-17T20:23:51.852Z,95.90
2023-01-17T20:26:25.752Z,95.50
2023-01-17T20:28:53.562Z,96.00
2023-01-17T20:31:25.733Z,96.10
2023-01-17T20:33:54.881Z,96.10
2023-01-17T20:36:24.602Z,96.00
2023-01-17T20:38:53.309Z,95.60
2023-01-17T20:41:25.648Z,95.80
2023-01-17T20:43:56.896Z,95.90
2023-01-17T20:46:26.752Z,96.20
2023-01-17T20:48:56.348Z,96.30
2023-01-17T20:51:26.223Z,96.20
2023-01-17T20:53:56.571Z,95.90
2023-01-17T20:56:24.587Z,96.00
2023-01-17T20:58:52.985Z,96.30
2023-01-17T21:01:21.559Z,96.20
2023-01-17T21:03:52.580Z,96.30
2023-01-17T21:06:22.135Z,96.40
2023-01-17T21:08:49.907Z,96.40
2023-01-17T21:11:23.051Z,96.10
2023-01-17T21:13:51.362Z,96.30
2023-01-17T21:16:21.372Z,96.60
2023-01-17T21:18:50.206Z,96.50
2023-01-17T21:21:22.942Z,96.80
2023-01-17T21:23:52.465Z,96.40
2023-01-17T21:26:21.525Z,96.50
2023-01-17T21:28:51.067Z,96.50
2023-01-17T21:31:29.908Z,96.60
2023-01-17T21:34:17.385Z,96.90
2023-01-17T21:36:44.642Z,96.60
2023-01-17T21:39:17.975Z,97.00
2023-01-17T21:41:48.147Z,97.60
2023-01-17T21:44:19.478Z,98.20
2023-01-17T21:46:47.501Z,98.30
2023-01-17T21:49:15.494Z,98.60
2023-01-17T21:51:55.614Z,99.10
2023-01-17T21:54:44.398Z,99.50
2023-01-17T21:57:35.233Z,99.90
2023-01-17T22:00:03.701Z,99.80
2023-01-17T22:02:30.788Z,99.70
2023-01-17T22:04:58.928Z,99.90
2023-01-17T22:07:29.291Z,99.90
2023-01-17T22:09:57.124Z,99.90
2023-01-17T22:12:24.365Z,99.90
2023-01-17T22:14:51.664Z,99.90
2023-01-17T22:17:18.730Z,99.90
2023-01-17T22:19:46.165Z,99.90
2023-01-17T22:22:13.782Z,99.90
2023-01-17T22:24:40.999Z,99.90
2023-01-17T22:27:10.054Z,99.90
2023-01-17T22:29:37.956Z,99.90
2023-01-17T22:32:05.286Z,99.90
2023-01-17T22:34:32.232Z,99.90
2023-01-17T22:36:59.593Z,99.90
2023-01-17T22:39:26.613Z,99.90
2023-01-17T22:41:53.971Z,99.90
2023-01-17T22:44:21.114Z,99.90
2023-01-17T22:46:49.123Z,99.90
2023-01-17T22:49:17.462Z,99.90
2023-01-17T22:51:45.144Z,99.90
2023-01-17T22:54:12.691Z,99.90
2023-01-17T22:56:39.711Z,99.90
2023-01-17T22:59:11.840Z,99.90
2023-01-17T23:01:43.086Z,99.90
2023-01-17T23:04:14.148Z,99.90
2023-01-17T23:06:41.846Z,99.90
2023-01-17T23:09:14.240Z,99.90
2023-01-17T23:11:53.094Z,99.90
2023-01-17T23:14:24.526Z,99.90
2023-01-17T23:17:18.812Z,99.90
2023-01-17T23:19:52.841Z,99.90
2023-01-17T23:22:28.515Z,99.90
2023-01-17T23:25:11.198Z,99.90
2023-01-17T23:28:00.027Z,99.90
2023-01-17T23:30:40.418Z,99.90
2023-01-17T23:33:09.868Z,99.90
2023-01-17T23:35:41.671Z,99.90
2023-01-17T23:38:26.286Z,99.90
2023-01-17T23:41:18.184Z,99.90
2023-01-17T23:43:51.002Z,99.90
2023-01-17T23:46:18.097Z,99.90
2023-01-17T23:48:45.170Z,99.90
2023-01-17T23:51:12.276Z,99.90
2023-01-17T23:53:40.088Z,99.90
2023-01-17T23:56:22.458Z,99.90
2023-01-17T23:58:49.772Z,99.90
